sensor_id;sensor_type;location;lat;lon;timestamp;temperature;humidity
24800;DHT22;12897;50.812;4.430;2023-12-20T00:00:17;7.30;99.90
24800;DHT22;12897;50.812;4.430;2023-12-20T00:02:45;7.30;99.90
24800;DHT22;12897;50.812;4.430;2023-12-20T00:05:14;7.20;99.90
24800;DHT22;12897;50.812;4.430;2023-12-20T00:07:41;7.30;99.90
24800;DHT22;12897;50.812;4.430;2023-12-20T00:10:09;7.20;99.90
24800;DHT22;12897;50.812;4.430;2023-12-20T00:12:39;7.30;99.90
24800;DHT22;12897;50.812;4.430;2023-12-20T00:15:07;7.30;99.90
24800;DHT22;12897;50.812;4.430;2023-12-20T00:17:35;7.30;99.90
24800;DHT22;12897;50.812;4.430;2023-12-20T00:20:03;7.30;99.90
24800;DHT22;12897;50.812;4.430;2023-12-20T00:22:32;7.30;99.90
24800;DHT22;12897;50.812;4.430;2023-12-20T00:24:59;7.30;99.90
24800;DHT22;12897;50.812;4.430;2023-12-20T00:27:27;7.30;99.90
24800;DHT22;12897;50.812;4.430;2023-12-20T00:29:54;7.20;99.90
24800;DHT22;12897;50.812;4.430;2023-12-20T00:32:22;7.10;99.90
24800;DHT22;12897;50.812;4.430;2023-12-20T00:34:49;7.10;99.90
24800;DHT22;12897;50.812;4.430;2023-12-20T00:37:17;7.10;99.90
24800;DHT22;12897;50.812;4.430;2023-12-20T00:39:44;7.10;99.90
24800;DHT22;12897;50.812;4.430;2023-12-20T00:42:12;7.00;99.90
24800;DHT22;12897;50.812;4.430;2023-12-20T00:44:40;7.00;99.90
24800;DHT22;12897;50.812;4.430;2023-12-20T00:47:07;6.90;99.90
24800;DHT22;12897;50.812;4.430;2023-12-20T00:49:35;6.90;99.90
24800;DHT22;12897;50.812;4.430;2023-12-20T00:52:02;6.90;99.90
24800;DHT22;12897;50.812;4.430;2023-12-20T00:54:30;6.80;99.90
24800;DHT22;12897;50.812;4.430;2023-12-20T00:56:57;6.80;99.90
24800;DHT22;12897;50.812;4.430;2023-12-20T00:59:26;6.80;99.90
24800;DHT22;12897;50.812;4.430;2023-12-20T01:01:53;6.80;99.90
24800;DHT22;12897;50.812;4.430;2023-12-20T01:04:21;6.80;99.90
24800;DHT22;12897;50.812;4.430;2023-12-20T01:06:48;6.80;99.90
24800;DHT22;12897;50.812;4.430;2023-12-20T01:09:16;6.80;99.90
24800;DHT22;12897;50.812;4.430;2023-12-20T01:11:45;6.70;99.90
24800;DHT22;12897;50.812;4.430;2023-12-20T01:14:13;6.80;99.90
24800;DHT22;12897;50.812;4.430;2023-12-20T01:16:40;6.80;99.90
24800;DHT22;12897;50.812;4.430;2023-12-20T01:19:08;6.80;99.90
24800;DHT22;12897;50.812;4.430;2023-12-20T01:21:35;6.80;99.90
24800;DHT22;12897;50.812;4.430;2023-12-20T01:24:03;6.70;99.90
24800;DHT22;12897;50.812;4.430;2023-12-20T01:26:31;6.60;99.90
24800;DHT22;12897;50.812;4.430;2023-12-20T01:28:58;6.50;99.90
24800;DHT22;12897;50.812;4.430;2023-12-20T01:31:26;6.60;99.90
24800;DHT22;12897;50.812;4.430;2023-12-20T01:33:54;6.50;99.90
24800;DHT22;12897;50.812;4.430;2023-12-20T01:36:22;6.60;99.90
24800;DHT22;12897;50.812;4.430;2023-12-20T01:38:49;6.50;99.90
24800;DHT22;12897;50.812;4.430;2023-12-20T01:41:17;6.50;99.90
24800;DHT22;12897;50.812;4.430;2023-12-20T01:43:45;6.50;99.90
24800;DHT22;12897;50.812;4.430;2023-12-20T01:46:12;6.50;99.90
24800;DHT22;12897;50.812;4.430;2023-12-20T01:48:40;6.50;99.90
24800;DHT22;12897;50.812;4.430;2023-12-20T01:51:08;6.40;99.90
24800;DHT22;12897;50.812;4.430;2023-12-20T01:53:37;6.40;99.90
24800;DHT22;12897;50.812;4.430;2023-12-20T01:56:05;6.40;99.90
24800;DHT22;12897;50.812;4.430;2023-12-20T01:58:33;6.40;99.90
24800;DHT22;12897;50.812;4.430;2023-12-20T02:01:01;6.40;99.90
24800;DHT22;12897;50.812;4.430;2023-12-20T02:03:29;6.40;99.90
24800;DHT22;12897;50.812;4.430;2023-12-20T02:05:57;6.40;99.90
24800;DHT22;12897;50.812;4.430;2023-12-20T02:08:25;6.40;99.90
24800;DHT22;12897;50.812;4.430;2023-12-20T02:10:52;6.50;99.90
24800;DHT22;12897;50.812;4.430;2023-12-20T02:13:20;6.50;99.90
24800;DHT22;12897;50.812;4.430;2023-12-20T02:15:48;6.50;99.90
24800;DHT22;12897;50.812;4.430;2023-12-20T02:18:15;6.50;99.90
24800;DHT22;12897;50.812;4.430;2023-12-20T02:20:43;6.50;99.90
24800;DHT22;12897;50.812;4.430;2023-12-20T02:23:11;6.40;99.90
24800;DHT22;12897;50.812;4.430;2023-12-20T02:25:38;6.40;99.90
24800;DHT22;12897;50.812;4.430;2023-12-20T02:28:06;6.40;99.90
24800;DHT22;12897;50.812;4.430;2023-12-20T02:30:33;6.40;99.90
24800;DHT22;12897;50.812;4.430;2023-12-20T02:33:01;6.40;99.90
24800;DHT22;12897;50.812;4.430;2023-12-20T02:35:30;6.30;99.90
24800;DHT22;12897;50.812;4.430;2023-12-20T02:37:58;6.30;99.90
24800;DHT22;12897;50.812;4.430;2023-12-20T02:40:25;6.40;99.90
24800;DHT22;12897;50.812;4.430;2023-12-20T02:42:53;6.30;99.90
24800;DHT22;12897;50.812;4.430;2023-12-20T02:45:20;6.30;99.90
24800;DHT22;12897;50.812;4.430;2023-12-20T02:47:48;6.30;99.90
24800;DHT22;12897;50.812;4.430;2023-12-20T02:50:15;6.30;99.90
24800;DHT22;12897;50.812;4.430;2023-12-20T02:52:45;6.30;99.90
24800;DHT22;12897;50.812;4.430;2023-12-20T02:55:12;6.30;99.90
24800;DHT22;12897;50.812;4.430;2023-12-20T02:57:40;6.40;99.90
24800;DHT22;12897;50.812;4.430;2023-12-20T03:00:09;6.30;99.90
24800;DHT22;12897;50.812;4.430;2023-12-20T03:02:37;6.20;99.90
24800;DHT22;12897;50.812;4.430;2023-12-20T03:05:05;6.30;99.90
24800;DHT22;12897;50.812;4.430;2023-12-20T03:07:32;6.30;99.90
24800;DHT22;12897;50.812;4.430;2023-12-20T03:10:00;6.30;99.90
24800;DHT22;12897;50.812;4.430;2023-12-20T03:12:28;6.30;99.90
24800;DHT22;12897;50.812;4.430;2023-12-20T03:14:55;6.40;99.90
24800;DHT22;12897;50.812;4.430;2023-12-20T03:17:23;6.30;99.90
24800;DHT22;12897;50.812;4.430;2023-12-20T03:19:50;6.30;99.90
24800;DHT22;12897;50.812;4.430;2023-12-20T03:22:18;6.40;99.90
24800;DHT22;12897;50.812;4.430;2023-12-20T03:24:45;6.50;99.90
24800;DHT22;12897;50.812;4.430;2023-12-20T03:27:13;6.50;99.90
24800;DHT22;12897;50.812;4.430;2023-12-20T03:29:40;6.50;99.90
24800;DHT22;12897;50.812;4.430;2023-12-20T03:32:08;6.50;99.90
24800;DHT22;12897;50.812;4.430;2023-12-20T03:34:35;6.50;99.90
24800;DHT22;12897;50.812;4.430;2023-12-20T03:37:03;6.50;99.90
24800;DHT22;12897;50.812;4.430;2023-12-20T03:39:31;6.60;99.90
24800;DHT22;12897;50.812;4.430;2023-12-20T03:41:58;6.60;99.90
24800;DHT22;12897;50.812;4.430;2023-12-20T03:44:26;6.70;99.90
24800;DHT22;12897;50.812;4.430;2023-12-20T03:46:53;6.70;99.90
24800;DHT22;12897;50.812;4.430;2023-12-20T03:49:21;6.70;99.90
24800;DHT22;12897;50.812;4.430;2023-12-20T03:51:48;6.60;99.90
24800;DHT22;12897;50.812;4.430;2023-12-20T03:54:16;6.60;99.90
24800;DHT22;12897;50.812;4.430;2023-12-20T03:56:44;6.50;99.90
24800;DHT22;12897;50.812;4.430;2023-12-20T03:59:11;6.60;99.90
24800;DHT22;12897;50.812;4.430;2023-12-20T04:01:39;6.60;99.90
24800;DHT22;12897;50.812;4.430;2023-12-20T04:04:08;6.60;99.90
24800;DHT22;12897;50.812;4.430;2023-12-20T04:06:35;6.70;99.90
24800;DHT22;12897;50.812;4.430;2023-12-20T04:09:03;6.80;99.90
24800;DHT22;12897;50.812;4.430;2023-12-20T04:11:30;6.70;99.90
24800;DHT22;12897;50.812;4.430;2023-12-20T04:13:58;6.70;99.90
24800;DHT22;12897;50.812;4.430;2023-12-20T04:16:25;6.80;99.90
24800;DHT22;12897;50.812;4.430;2023-12-20T04:18:53;6.90;99.90
24800;DHT22;12897;50.812;4.430;2023-12-20T04:21:21;6.90;99.90
24800;DHT22;12897;50.812;4.430;2023-12-20T04:23:48;6.90;99.90
24800;DHT22;12897;50.812;4.430;2023-12-20T04:26:16;6.80;99.90
24800;DHT22;12897;50.812;4.430;2023-12-20T04:28:44;6.70;99.90
24800;DHT22;12897;50.812;4.430;2023-12-20T04:31:11;6.70;99.90
24800;DHT22;12897;50.812;4.430;2023-12-20T04:33:39;6.60;99.90
24800;DHT22;12897;50.812;4.430;2023-12-20T04:36:06;6.60;99.90
24800;DHT22;12897;50.812;4.430;2023-12-20T04:38:35;6.40;99.90
24800;DHT22;12897;50.812;4.430;2023-12-20T04:41:03;6.40;99.90
24800;DHT22;12897;50.812;4.430;2023-12-20T04:43:30;6.40;99.90
24800;DHT22;12897;50.812;4.430;2023-12-20T04:45:58;6.50;99.90
24800;DHT22;12897;50.812;4.430;2023-12-20T04:48:26;6.50;99.90
24800;DHT22;12897;50.812;4.430;2023-12-20T04:50:53;6.50;99.90
24800;DHT22;12897;50.812;4.430;2023-12-20T04:53:21;6.60;99.90
24800;DHT22;12897;50.812;4.430;2023-12-20T04:55:49;6.60;99.90
24800;DHT22;12897;50.812;4.430;2023-12-20T04:58:17;6.70;99.90
24800;DHT22;12897;50.812;4.430;2023-12-20T05:00:45;6.60;99.90
24800;DHT22;12897;50.812;4.430;2023-12-20T05:03:12;6.70;99.90
24800;DHT22;12897;50.812;4.430;2023-12-20T05:05:40;6.80;99.90
24800;DHT22;12897;50.812;4.430;2023-12-20T05:08:07;6.80;99.90
24800;DHT22;12897;50.812;4.430;2023-12-20T05:10:35;6.80;99.90
24800;DHT22;12897;50.812;4.430;2023-12-20T05:13:03;6.90;99.90
24800;DHT22;12897;50.812;4.430;2023-12-20T05:15:30;6.70;99.90
24800;DHT22;12897;50.812;4.430;2023-12-20T05:17:58;6.70;99.90
24800;DHT22;12897;50.812;4.430;2023-12-20T05:20:26;6.70;99.90
24800;DHT22;12897;50.812;4.430;2023-12-20T05:22:53;6.70;99.90
24800;DHT22;12897;50.812;4.430;2023-12-20T05:25:21;6.70;99.90
24800;DHT22;12897;50.812;4.430;2023-12-20T05:27:48;6.60;99.90
24800;DHT22;12897;50.812;4.430;2023-12-20T05:30:16;6.50;99.90
24800;DHT22;12897;50.812;4.430;2023-12-20T05:32:43;6.40;99.90
24800;DHT22;12897;50.812;4.430;2023-12-20T05:35:11;6.40;99.90
24800;DHT22;12897;50.812;4.430;2023-12-20T05:37:38;6.40;99.90
24800;DHT22;12897;50.812;4.430;2023-12-20T05:40:07;6.30;99.90
24800;DHT22;12897;50.812;4.430;2023-12-20T05:42:36;6.40;99.90
24800;DHT22;12897;50.812;4.430;2023-12-20T05:45:08;6.30;99.90
24800;DHT22;12897;50.812;4.430;2023-12-20T05:47:37;6.20;99.90
24800;DHT22;12897;50.812;4.430;2023-12-20T05:50:05;6.30;99.90
24800;DHT22;12897;50.812;4.430;2023-12-20T05:52:33;6.30;99.90
24800;DHT22;12897;50.812;4.430;2023-12-20T05:55:00;6.30;99.90
24800;DHT22;12897;50.812;4.430;2023-12-20T05:57:28;6.20;99.90
24800;DHT22;12897;50.812;4.430;2023-12-20T05:59:58;6.10;99.90
24800;DHT22;12897;50.812;4.430;2023-12-20T06:02:26;6.10;99.90
24800;DHT22;12897;50.812;4.430;2023-12-20T06:04:54;6.10;99.90
24800;DHT22;12897;50.812;4.430;2023-12-20T06:07:21;6.20;99.90
24800;DHT22;12897;50.812;4.430;2023-12-20T06:09:49;6.10;99.90
24800;DHT22;12897;50.812;4.430;2023-12-20T06:12:17;6.00;99.90
24800;DHT22;12897;50.812;4.430;2023-12-20T06:14:44;6.00;99.90
24800;DHT22;12897;50.812;4.430;2023-12-20T06:17:12;6.00;99.90
24800;DHT22;12897;50.812;4.430;2023-12-20T06:19:40;6.10;99.90
24800;DHT22;12897;50.812;4.430;2023-12-20T06:22:09;6.30;99.90
24800;DHT22;12897;50.812;4.430;2023-12-20T06:24:37;6.30;99.90
24800;DHT22;12897;50.812;4.430;2023-12-20T06:27:04;6.30;99.90
24800;DHT22;12897;50.812;4.430;2023-12-20T06:29:32;6.30;99.90
24800;DHT22;12897;50.812;4.430;2023-12-20T06:32:01;6.30;99.90
24800;DHT22;12897;50.812;4.430;2023-12-20T06:34:29;6.30;99.90
24800;DHT22;12897;50.812;4.430;2023-12-20T06:36:56;6.40;99.90
24800;DHT22;12897;50.812;4.430;2023-12-20T06:39:24;6.40;99.90
24800;DHT22;12897;50.812;4.430;2023-12-20T06:41:51;6.40;99.90
24800;DHT22;12897;50.812;4.430;2023-12-20T06:44:19;6.40;99.90
24800;DHT22;12897;50.812;4.430;2023-12-20T06:46:46;6.40;99.90
24800;DHT22;12897;50.812;4.430;2023-12-20T06:49:14;6.30;99.90
24800;DHT22;12897;50.812;4.430;2023-12-20T06:51:42;6.20;99.90
24800;DHT22;12897;50.812;4.430;2023-12-20T06:54:09;6.30;99.90
24800;DHT22;12897;50.812;4.430;2023-12-20T06:56:37;6.30;99.90
24800;DHT22;12897;50.812;4.430;2023-12-20T06:59:04;6.30;99.90
24800;DHT22;12897;50.812;4.430;2023-12-20T07:01:33;6.20;99.90
24800;DHT22;12897;50.812;4.430;2023-12-20T07:04:00;6.10;99.90
24800;DHT22;12897;50.812;4.430;2023-12-20T07:06:28;6.00;99.90
24800;DHT22;12897;50.812;4.430;2023-12-20T07:08:55;6.00;99.90
24800;DHT22;12897;50.812;4.430;2023-12-20T07:11:23;5.90;99.90
24800;DHT22;12897;50.812;4.430;2023-12-20T07:13:51;5.90;99.90
24800;DHT22;12897;50.812;4.430;2023-12-20T07:16:18;5.80;99.90
24800;DHT22;12897;50.812;4.430;2023-12-20T07:18:46;5.80;99.90
24800;DHT22;12897;50.812;4.430;2023-12-20T07:21:13;5.80;99.90
24800;DHT22;12897;50.812;4.430;2023-12-20T07:23:48;5.90;99.90
24800;DHT22;12897;50.812;4.430;2023-12-20T07:26:17;6.00;99.90
24800;DHT22;12897;50.812;4.430;2023-12-20T07:28:44;5.90;99.90
24800;DHT22;12897;50.812;4.430;2023-12-20T07:31:12;5.80;99.90
24800;DHT22;12897;50.812;4.430;2023-12-20T07:33:40;5.80;99.90
24800;DHT22;12897;50.812;4.430;2023-12-20T07:36:07;5.90;99.90
24800;DHT22;12897;50.812;4.430;2023-12-20T07:38:35;5.90;99.90
24800;DHT22;12897;50.812;4.430;2023-12-20T07:41:03;5.90;99.90
24800;DHT22;12897;50.812;4.430;2023-12-20T07:43:31;5.80;99.90
24800;DHT22;12897;50.812;4.430;2023-12-20T07:46:06;5.80;99.90
24800;DHT22;12897;50.812;4.430;2023-12-20T07:48:36;5.80;99.90
24800;DHT22;12897;50.812;4.430;2023-12-20T07:51:05;5.80;99.90
24800;DHT22;12897;50.812;4.430;2023-12-20T07:53:35;5.80;99.90
24800;DHT22;12897;50.812;4.430;2023-12-20T07:56:05;5.80;99.90
24800;DHT22;12897;50.812;4.430;2023-12-20T07:58:32;5.80;99.90
24800;DHT22;12897;50.812;4.430;2023-12-20T08:00:59;5.80;99.90
24800;DHT22;12897;50.812;4.430;2023-12-20T08:03:27;5.70;99.90
24800;DHT22;12897;50.812;4.430;2023-12-20T08:05:54;5.70;99.90
24800;DHT22;12897;50.812;4.430;2023-12-20T08:08:23;5.80;99.90
24800;DHT22;12897;50.812;4.430;2023-12-20T08:10:50;5.80;99.90
24800;DHT22;12897;50.812;4.430;2023-12-20T08:13:18;5.80;99.90
24800;DHT22;12897;50.812;4.430;2023-12-20T08:15:45;5.80;99.90
24800;DHT22;12897;50.812;4.430;2023-12-20T08:18:13;5.80;99.90
24800;DHT22;12897;50.812;4.430;2023-12-20T08:20:41;5.90;99.90
24800;DHT22;12897;50.812;4.430;2023-12-20T08:23:08;6.00;99.90
24800;DHT22;12897;50.812;4.430;2023-12-20T08:25:36;6.00;99.90
24800;DHT22;12897;50.812;4.430;2023-12-20T08:28:03;6.10;99.90
24800;DHT22;12897;50.812;4.430;2023-12-20T08:30:31;6.10;99.90
24800;DHT22;12897;50.812;4.430;2023-12-20T08:33:02;6.00;99.90
24800;DHT22;12897;50.812;4.430;2023-12-20T08:35:29;5.90;99.90
24800;DHT22;12897;50.812;4.430;2023-12-20T08:37:57;5.90;99.90
24800;DHT22;12897;50.812;4.430;2023-12-20T08:40:25;6.10;99.90
24800;DHT22;12897;50.812;4.430;2023-12-20T08:42:52;6.10;99.90
24800;DHT22;12897;50.812;4.430;2023-12-20T08:45:21;6.10;99.90
24800;DHT22;12897;50.812;4.430;2023-12-20T08:47:48;6.00;99.90
24800;DHT22;12897;50.812;4.430;2023-12-20T08:50:16;6.00;99.90
24800;DHT22;12897;50.812;4.430;2023-12-20T08:52:44;6.00;99.90
24800;DHT22;12897;50.812;4.430;2023-12-20T08:55:12;6.10;99.90
24800;DHT22;12897;50.812;4.430;2023-12-20T08:57:42;6.20;99.90
24800;DHT22;12897;50.812;4.430;2023-12-20T09:00:10;6.20;99.90
24800;DHT22;12897;50.812;4.430;2023-12-20T09:02:38;6.30;99.90
24800;DHT22;12897;50.812;4.430;2023-12-20T09:05:06;6.20;99.90
24800;DHT22;12897;50.812;4.430;2023-12-20T09:07:34;6.20;99.90
24800;DHT22;12897;50.812;4.430;2023-12-20T09:10:03;6.10;99.90
24800;DHT22;12897;50.812;4.430;2023-12-20T09:12:35;6.20;99.90
24800;DHT22;12897;50.812;4.430;2023-12-20T09:15:05;6.20;99.90
24800;DHT22;12897;50.812;4.430;2023-12-20T09:17:32;6.20;99.90
24800;DHT22;12897;50.812;4.430;2023-12-20T09:20:00;6.30;99.90
24800;DHT22;12897;50.812;4.430;2023-12-20T09:22:29;6.30;99.90
24800;DHT22;12897;50.812;4.430;2023-12-20T09:24:56;6.30;99.90
24800;DHT22;12897;50.812;4.430;2023-12-20T09:27:24;6.30;99.90
24800;DHT22;12897;50.812;4.430;2023-12-20T09:29:51;6.40;99.90
24800;DHT22;12897;50.812;4.430;2023-12-20T09:32:20;6.60;99.90
24800;DHT22;12897;50.812;4.430;2023-12-20T09:34:48;6.80;99.90
24800;DHT22;12897;50.812;4.430;2023-12-20T09:37:15;6.80;99.90
24800;DHT22;12897;50.812;4.430;2023-12-20T09:39:43;6.70;99.90
24800;DHT22;12897;50.812;4.430;2023-12-20T09:42:12;6.80;99.90
24800;DHT22;12897;50.812;4.430;2023-12-20T09:44:41;6.70;99.90
24800;DHT22;12897;50.812;4.430;2023-12-20T09:47:10;6.80;99.90
24800;DHT22;12897;50.812;4.430;2023-12-20T09:49:38;7.00;99.90
24800;DHT22;12897;50.812;4.430;2023-12-20T09:52:08;7.10;99.90
24800;DHT22;12897;50.812;4.430;2023-12-20T09:54:37;7.10;99.90
24800;DHT22;12897;50.812;4.430;2023-12-20T09:57:04;7.20;99.90
24800;DHT22;12897;50.812;4.430;2023-12-20T09:59:32;7.20;99.90
24800;DHT22;12897;50.812;4.430;2023-12-20T10:02:01;7.10;99.90
24800;DHT22;12897;50.812;4.430;2023-12-20T10:04:31;7.10;99.90
24800;DHT22;12897;50.812;4.430;2023-12-20T10:07:04;7.20;99.90
24800;DHT22;12897;50.812;4.430;2023-12-20T10:09:31;7.40;99.90
24800;DHT22;12897;50.812;4.430;2023-12-20T10:11:59;7.40;99.90
24800;DHT22;12897;50.812;4.430;2023-12-20T10:14:27;7.50;99.90
24800;DHT22;12897;50.812;4.430;2023-12-20T10:17:01;7.40;99.90
24800;DHT22;12897;50.812;4.430;2023-12-20T10:19:25;7.40;99.90
24800;DHT22;12897;50.812;4.430;2023-12-20T10:21:53;7.50;99.90
24800;DHT22;12897;50.812;4.430;2023-12-20T10:24:20;7.70;99.90
24800;DHT22;12897;50.812;4.430;2023-12-20T10:26:48;7.80;99.90
24800;DHT22;12897;50.812;4.430;2023-12-20T10:29:18;8.00;99.90
24800;DHT22;12897;50.812;4.430;2023-12-20T10:31:45;8.10;99.90
24800;DHT22;12897;50.812;4.430;2023-12-20T10:34:13;8.10;99.90
24800;DHT22;12897;50.812;4.430;2023-12-20T10:36:40;8.00;99.90
24800;DHT22;12897;50.812;4.430;2023-12-20T10:39:09;8.00;99.90
24800;DHT22;12897;50.812;4.430;2023-12-20T10:41:38;8.00;99.90
24800;DHT22;12897;50.812;4.430;2023-12-20T10:44:09;8.00;99.90
24800;DHT22;12897;50.812;4.430;2023-12-20T10:46:39;7.90;99.90
24800;DHT22;12897;50.812;4.430;2023-12-20T10:49:08;8.00;99.90
24800;DHT22;12897;50.812;4.430;2023-12-20T10:51:38;8.00;99.90
24800;DHT22;12897;50.812;4.430;2023-12-20T10:54:05;8.10;99.90
24800;DHT22;12897;50.812;4.430;2023-12-20T10:56:35;8.10;99.90
24800;DHT22;12897;50.812;4.430;2023-12-20T10:59:06;8.20;99.90
24800;DHT22;12897;50.812;4.430;2023-12-20T11:01:38;8.30;99.90
24800;DHT22;12897;50.812;4.430;2023-12-20T11:04:09;8.30;99.90
24800;DHT22;12897;50.812;4.430;2023-12-20T11:06:49;8.30;99.90
24800;DHT22;12897;50.812;4.430;2023-12-20T11:09:29;8.30;99.90
24800;DHT22;12897;50.812;4.430;2023-12-20T11:12:31;8.40;99.90
24800;DHT22;12897;50.812;4.430;2023-12-20T11:14:56;8.60;99.90
24800;DHT22;12897;50.812;4.430;2023-12-20T11:17:24;8.40;99.90
24800;DHT22;12897;50.812;4.430;2023-12-20T11:22:30;8.40;99.90
24800;DHT22;12897;50.812;4.430;2023-12-20T11:25:08;8.30;99.90
24800;DHT22;12897;50.812;4.430;2023-12-20T11:27:40;8.30;99.90
24800;DHT22;12897;50.812;4.430;2023-12-20T11:30:07;8.40;99.90
24800;DHT22;12897;50.812;4.430;2023-12-20T11:32:37;8.40;99.90
24800;DHT22;12897;50.812;4.430;2023-12-20T11:37:38;8.40;99.90
24800;DHT22;12897;50.812;4.430;2023-12-20T11:40:14;8.40;99.90
24800;DHT22;12897;50.812;4.430;2023-12-20T11:42:44;8.60;99.90
24800;DHT22;12897;50.812;4.430;2023-12-20T11:45:15;8.60;99.90
24800;DHT22;12897;50.812;4.430;2023-12-20T11:47:50;8.60;99.90
24800;DHT22;12897;50.812;4.430;2023-12-20T11:50:20;8.50;99.90
24800;DHT22;12897;50.812;4.430;2023-12-20T11:52:49;8.40;99.90
24800;DHT22;12897;50.812;4.430;2023-12-20T11:55:18;8.30;99.90
24800;DHT22;12897;50.812;4.430;2023-12-20T11:57:47;8.40;99.90
24800;DHT22;12897;50.812;4.430;2023-12-20T12:00:15;8.40;99.90
24800;DHT22;12897;50.812;4.430;2023-12-20T12:02:42;8.60;99.90
24800;DHT22;12897;50.812;4.430;2023-12-20T12:05:10;8.60;99.90
24800;DHT22;12897;50.812;4.430;2023-12-20T12:07:38;8.60;99.90
24800;DHT22;12897;50.812;4.430;2023-12-20T12:10:08;8.60;99.90
24800;DHT22;12897;50.812;4.430;2023-12-20T12:12:35;8.70;99.90
24800;DHT22;12897;50.812;4.430;2023-12-20T12:15:03;8.70;99.90
24800;DHT22;12897;50.812;4.430;2023-12-20T12:17:32;8.60;99.90
24800;DHT22;12897;50.812;4.430;2023-12-20T12:20:06;8.50;99.90
24800;DHT22;12897;50.812;4.430;2023-12-20T12:22:36;8.50;99.90
24800;DHT22;12897;50.812;4.430;2023-12-20T12:25:11;8.50;99.90
24800;DHT22;12897;50.812;4.430;2023-12-20T12:27:43;8.50;99.90
24800;DHT22;12897;50.812;4.430;2023-12-20T12:30:11;8.60;99.90
24800;DHT22;12897;50.812;4.430;2023-12-20T12:32:40;8.60;99.90
24800;DHT22;12897;50.812;4.430;2023-12-20T12:35:08;8.70;99.90
24800;DHT22;12897;50.812;4.430;2023-12-20T12:37:38;8.80;99.90
24800;DHT22;12897;50.812;4.430;2023-12-20T12:40:13;8.80;99.90
24800;DHT22;12897;50.812;4.430;2023-12-20T12:42:42;8.90;99.90
24800;DHT22;12897;50.812;4.430;2023-12-20T12:45:15;8.90;99.90
24800;DHT22;12897;50.812;4.430;2023-12-20T12:47:43;8.90;99.90
24800;DHT22;12897;50.812;4.430;2023-12-20T12:50:10;8.90;99.90
24800;DHT22;12897;50.812;4.430;2023-12-20T12:52:39;9.00;99.90
24800;DHT22;12897;50.812;4.430;2023-12-20T12:55:07;8.90;99.90
24800;DHT22;12897;50.812;4.430;2023-12-20T12:57:34;8.80;99.90
24800;DHT22;12897;50.812;4.430;2023-12-20T13:00:02;8.70;99.90
24800;DHT22;12897;50.812;4.430;2023-12-20T13:02:29;8.70;99.90
24800;DHT22;12897;50.812;4.430;2023-12-20T13:04:57;8.80;99.90
24800;DHT22;12897;50.812;4.430;2023-12-20T13:07:25;8.80;99.90
24800;DHT22;12897;50.812;4.430;2023-12-20T13:09:53;8.80;99.90
24800;DHT22;12897;50.812;4.430;2023-12-20T13:12:20;8.80;99.90
24800;DHT22;12897;50.812;4.430;2023-12-20T13:14:48;8.80;99.90
24800;DHT22;12897;50.812;4.430;2023-12-20T13:17:16;8.80;99.90
24800;DHT22;12897;50.812;4.430;2023-12-20T13:19:43;8.90;99.90
24800;DHT22;12897;50.812;4.430;2023-12-20T13:22:11;8.90;99.90
24800;DHT22;12897;50.812;4.430;2023-12-20T13:24:39;8.90;99.90
24800;DHT22;12897;50.812;4.430;2023-12-20T13:27:07;8.80;99.90
24800;DHT22;12897;50.812;4.430;2023-12-20T13:29:34;8.80;99.90
24800;DHT22;12897;50.812;4.430;2023-12-20T13:32:02;8.90;99.90
24800;DHT22;12897;50.812;4.430;2023-12-20T13:34:30;9.00;99.90
24800;DHT22;12897;50.812;4.430;2023-12-20T13:36:58;9.10;99.90
24800;DHT22;12897;50.812;4.430;2023-12-20T13:39:26;9.10;99.90
24800;DHT22;12897;50.812;4.430;2023-12-20T13:41:54;9.30;99.90
24800;DHT22;12897;50.812;4.430;2023-12-20T13:44:21;9.30;99.90
24800;DHT22;12897;50.812;4.430;2023-12-20T13:46:49;9.40;99.90
24800;DHT22;12897;50.812;4.430;2023-12-20T13:49:16;9.40;99.90
24800;DHT22;12897;50.812;4.430;2023-12-20T13:51:44;9.40;99.90
24800;DHT22;12897;50.812;4.430;2023-12-20T13:54:11;9.30;99.90
24800;DHT22;12897;50.812;4.430;2023-12-20T13:56:39;9.30;99.90
24800;DHT22;12897;50.812;4.430;2023-12-20T13:59:07;9.30;99.90
24800;DHT22;12897;50.812;4.430;2023-12-20T14:01:35;9.20;99.90
24800;DHT22;12897;50.812;4.430;2023-12-20T14:04:02;9.10;99.90
24800;DHT22;12897;50.812;4.430;2023-12-20T14:06:30;9.20;99.90
24800;DHT22;12897;50.812;4.430;2023-12-20T14:08:58;9.10;99.90
24800;DHT22;12897;50.812;4.430;2023-12-20T14:11:29;9.10;99.90
24800;DHT22;12897;50.812;4.430;2023-12-20T14:13:57;9.20;99.90
24800;DHT22;12897;50.812;4.430;2023-12-20T14:16:25;9.20;99.90
24800;DHT22;12897;50.812;4.430;2023-12-20T14:18:52;9.20;99.90
24800;DHT22;12897;50.812;4.430;2023-12-20T14:21:21;9.30;99.90
24800;DHT22;12897;50.812;4.430;2023-12-20T14:23:50;9.30;99.90
24800;DHT22;12897;50.812;4.430;2023-12-20T14:26:18;9.30;99.90
24800;DHT22;12897;50.812;4.430;2023-12-20T14:28:46;9.30;99.90
24800;DHT22;12897;50.812;4.430;2023-12-20T14:31:13;9.30;99.90
24800;DHT22;12897;50.812;4.430;2023-12-20T14:33:41;9.40;99.90
24800;DHT22;12897;50.812;4.430;2023-12-20T14:36:09;9.50;99.90
24800;DHT22;12897;50.812;4.430;2023-12-20T14:38:36;9.60;99.90
24800;DHT22;12897;50.812;4.430;2023-12-20T14:41:04;9.60;99.90
24800;DHT22;12897;50.812;4.430;2023-12-20T14:43:33;9.70;99.90
24800;DHT22;12897;50.812;4.430;2023-12-20T14:46:00;9.70;99.90
24800;DHT22;12897;50.812;4.430;2023-12-20T14:48:28;9.60;99.90
24800;DHT22;12897;50.812;4.430;2023-12-20T14:50:55;9.60;99.90
24800;DHT22;12897;50.812;4.430;2023-12-20T14:53:24;9.50;99.90
24800;DHT22;12897;50.812;4.430;2023-12-20T14:55:51;9.50;99.90
24800;DHT22;12897;50.812;4.430;2023-12-20T14:58:19;9.60;99.90
24800;DHT22;12897;50.812;4.430;2023-12-20T15:00:47;9.60;99.90
24800;DHT22;12897;50.812;4.430;2023-12-20T15:03:15;9.50;99.90
24800;DHT22;12897;50.812;4.430;2023-12-20T15:05:44;9.60;99.90
24800;DHT22;12897;50.812;4.430;2023-12-20T15:08:14;9.70;99.90
24800;DHT22;12897;50.812;4.430;2023-12-20T15:10:41;9.60;99.90
24800;DHT22;12897;50.812;4.430;2023-12-20T15:13:09;9.50;99.90
24800;DHT22;12897;50.812;4.430;2023-12-20T15:15:38;9.50;99.90
24800;DHT22;12897;50.812;4.430;2023-12-20T15:18:05;9.50;99.90
24800;DHT22;12897;50.812;4.430;2023-12-20T15:20:33;9.40;99.90
24800;DHT22;12897;50.812;4.430;2023-12-20T15:23:03;9.50;99.90
24800;DHT22;12897;50.812;4.430;2023-12-20T15:25:32;9.50;99.90
24800;DHT22;12897;50.812;4.430;2023-12-20T15:28:00;9.40;99.90
24800;DHT22;12897;50.812;4.430;2023-12-20T15:30:29;9.50;99.90
24800;DHT22;12897;50.812;4.430;2023-12-20T15:32:56;9.60;99.90
24800;DHT22;12897;50.812;4.430;2023-12-20T15:35:24;9.70;99.90
24800;DHT22;12897;50.812;4.430;2023-12-20T15:37:51;9.80;99.90
24800;DHT22;12897;50.812;4.430;2023-12-20T15:40:19;9.80;99.90
24800;DHT22;12897;50.812;4.430;2023-12-20T15:42:47;9.80;99.90
24800;DHT22;12897;50.812;4.430;2023-12-20T15:45:14;9.80;99.90
24800;DHT22;12897;50.812;4.430;2023-12-20T15:47:42;9.80;99.90
24800;DHT22;12897;50.812;4.430;2023-12-20T15:50:12;9.80;99.90
24800;DHT22;12897;50.812;4.430;2023-12-20T15:52:39;9.90;99.90
24800;DHT22;12897;50.812;4.430;2023-12-20T15:55:09;9.90;99.90